Strona główna
METAR-TAF:

METAR-TAF

Lotnisko :

Tunis, Tunezja

Port lotniczy Tunis

Szerokość geograficzna: 36-50N, Długość geograficzna: 010-14E, wysokość: 3 m

Aktualna obserwacja pogody

Raport powstał 23 minut temu, godzina 03:30 UTC
Wiatr 9 kt od zachodnio-południowy zachód
Temperatura 11°C
Wilgotność 71%
Ciśnienie 1023 hPa
Widzialność 10 km lub więcej
Mało chmury na wysokości 2600 ft

METAR: DTTA 180330Z 25009KT 9999 FEW026 11/06 Q1023 NOSIG

czas: 04:53 (03:53 UTC)

Prognoza

Raport powstał 4 godziny i 53 minut temu, godzina 23:00 UTC
Prognoza ważna od 18 godzina 00 UTC do 18 godzina 24 UTC
Wiatr 15 kt od północny zachód
Widzialność 10 km lub więcej
Rozproszone chmury na wysokości 1600 ft
Stopniowe zmiany
od 18 godzina 17 UTC do 18 godzina 19 UTC
Wiatr 10 kt od południowo-południowy wschód

TAF: DTTA 172300Z 1800/1824 32015KT 9999 SCT016 BECMG 1817/1819 15010KT

Obserwacja i prognoza pogody dla ponad 4000 lotnisk (raport METAR i TAF).

Dostępne stacje oznaczono żółtymi i czerwonymi punktami na mapie.

Najedź kursorem aby zobaczyć nazwę stacji.

Kliknij aby zobaczyć obserwacje i prognozy pogody.

Aby zmienić mapę: kliknij na zielony przycisk z czarnym krzyżykiem, aby powiększyć; na zielony przycisk z myślnikiem, aby pomniejszyć; na zielone strzałki, aby przejść do map sąsiednich.


METAR-TAF: